Time;durP1;ratioP1;P1;durP2;ratioP2;P2;SDS_P1;SDS_P2;PMS_P1;PMS_P2;Temp;Humidity;BMP_temperature;BMP_pressure;BME280_temperature;BME280_humidity;BME280_pressure;Samples;Min_cycle;Max_cycle;Signal;HPM_P1;HPM_P2
2022/05/08 00:02:40;;;;;;;8.73;8.03;;;;;;;21.46;40.72;95555.06;6173242;28;104568;-57
2022/05/08 00:05:42;;;;;;;7.67;7.07;;;;;;;21.42;40.81;95542.63;6184029;28;103653;-58
2022/05/08 00:08:44;;;;;;;8.60;7.90;;;;;;;21.45;40.86;95542.81;6176347;28;104858;-57
2022/05/08 00:11:46;;;;;;;8.00;7.40;;;;;;;21.43;40.75;95539.66;6200975;28;105013;-57
2022/05/08 00:14:47;;;;;;;9.03;7.23;;;;;;;21.45;40.52;95544.69;6185867;28;103850;-57
2022/05/08 00:17:49;;;;;;;7.67;7.07;;;;;;;21.41;40.88;95541.03;6208508;28;105064;-57
2022/05/08 00:20:51;;;;;;;7.80;7.17;;;;;;;21.43;40.33;95541.53;6206705;28;105080;-57
2022/05/08 00:23:53;;;;;;;7.50;6.83;;;;;;;21.44;40.64;95540.47;6177848;28;104529;-58
2022/05/08 00:26:54;;;;;;;7.97;7.20;;;;;;;21.40;40.13;95534.91;6183305;28;103804;-57
2022/05/08 00:29:56;;;;;;;8.63;6.87;;;;;;;21.44;40.30;95545.78;6190249;28;103908;-58
2022/05/08 00:32:59;;;;;;;7.50;6.60;;;;;;;21.41;40.17;95541.03;6207787;28;103832;-55
2022/05/08 00:36:01;;;;;;;7.37;6.50;;;;;;;21.38;40.13;95544.28;6197039;28;103429;-56
2022/05/08 00:39:03;;;;;;;7.17;6.57;;;;;;;21.37;40.32;95540.81;6190511;28;103772;-56
2022/05/08 00:42:04;;;;;;;8.03;6.73;;;;;;;21.34;40.28;95540.59;6208507;28;104848;-57
2022/05/08 00:45:07;;;;;;;7.90;7.10;;;;;;;21.26;40.40;95539.38;6202384;28;103788;-57
2022/05/08 00:48:08;;;;;;;7.27;6.77;;;;;;;21.35;39.97;95552.84;6197677;28;104266;-56
2022/05/08 00:51:17;;;;;;;8.47;7.10;;;;;;;21.33;40.16;95549.66;6206445;28;103718;-54
2022/05/08 00:54:19;;;;;;;7.47;6.77;;;;;;;21.31;40.25;95541.16;6204010;28;103969;-57
2022/05/08 00:57:21;;;;;;;6.80;6.20;;;;;;;21.32;40.15;95545.41;6181730;28;104851;-58
2022/05/08 01:00:23;;;;;;;7.10;6.50;;;;;;;21.31;39.89;95535.84;6201697;28;103948;-57
2022/05/08 01:03:24;;;;;;;7.40;6.80;;;;;;;21.30;39.83;95534.28;6207485;28;103925;-57
2022/05/08 01:06:27;;;;;;;6.77;6.17;;;;;;;21.30;40.26;95543.03;6206710;28;105042;-59
2022/05/08 01:09:29;;;;;;;6.57;5.97;;;;;;;21.27;39.88;95543.63;6195460;28;104657;-57
2022/05/08 01:12:32;;;;;;;6.00;5.53;;;;;;;21.25;39.98;95529.81;6200816;28;104826;-56
2022/05/08 01:15:44;;;;;;;5.93;5.40;;;;;;;21.26;40.23;95536.72;6200000;28;104665;-56
2022/05/08 01:18:48;;;;;;;6.67;6.17;;;;;;;21.23;40.26;95529.31;6203536;28;103917;-56
2022/05/08 01:21:50;;;;;;;6.80;6.20;;;;;;;21.23;40.41;95531.97;6191838;28;104937;-54
2022/05/08 01:24:52;;;;;;;6.00;5.60;;;;;;;21.24;39.89;95533.56;6208168;28;103378;-56
2022/05/08 01:27:53;;;;;;;5.93;5.53;;;;;;;21.23;39.96;95529.31;6207126;28;104965;-57
2022/05/08 01:30:55;;;;;;;7.03;6.30;;;;;;;21.21;40.06;95534.94;6207540;28;103895;-58
2022/05/08 01:33:58;;;;;;;6.30;5.80;;;;;;;21.24;40.03;95536.22;6191649;28;105216;-52
2022/05/08 01:36:59;;;;;;;6.67;6.07;;;;;;;21.23;40.40;95531.97;6205143;28;104891;-52
2022/05/08 01:40:01;;;;;;;6.17;5.67;;;;;;;21.20;39.96;95533.34;6205734;28;103937;-52
2022/05/08 01:43:05;;;;;;;6.70;5.83;;;;;;;21.24;39.96;95538.09;6197875;28;103736;-54
2022/05/08 01:46:07;;;;;;;6.03;5.53;;;;;;;21.23;40.24;95539.16;6186463;28;103420;-52
2022/05/08 01:49:10;;;;;;;5.27;4.77;;;;;;;21.23;40.32;95531.19;6206097;28;105054;-51
2022/05/08 01:52:11;;;;;;;6.10;5.60;;;;;;;21.19;40.17;95523.78;6206675;28;104823;-51
2022/05/08 01:55:13;;;;;;;6.23;5.73;;;;;;;21.22;40.28;95530.41;6197297;28;104202;-51
2022/05/08 01:58:18;;;;;;;6.37;5.77;;;;;;;21.21;40.28;95518.97;6205105;28;103845;-52
2022/05/08 02:01:20;;;;;;;6.20;5.60;;;;;;;21.19;39.87;95523.00;6206965;28;104963;-53
2022/05/08 02:04:22;;;;;;;6.13;5.33;;;;;;;21.18;40.17;95524.06;6209948;28;104792;-52
2022/05/08 02:07:24;;;;;;;5.60;5.13;;;;;;;21.21;40.37;95526.94;6188803;28;104851;-51
2022/05/08 02:10:26;;;;;;;5.93;5.27;;;;;;;21.21;40.19;95528.81;6188089;28;103951;-51
2022/05/08 02:13:27;;;;;;;6.67;5.00;;;;;;;21.18;40.67;95529.41;6206386;28;104653;-51
2022/05/08 02:16:29;;;;;;;6.30;5.70;;;;;;;21.18;40.64;95522.19;6206598;28;103722;-52
2022/05/08 02:19:31;;;;;;;5.17;4.77;;;;;;;21.19;40.42;95525.66;6204582;28;106126;-52
2022/05/08 02:22:33;;;;;;;5.77;5.20;;;;;;;21.14;40.43;95523.03;6209257;28;104662;-55
2022/05/08 02:25:36;;;;;;;6.27;5.50;;;;;;;21.18;40.45;95521.41;6209780;28;103802;-50
2022/05/08 02:28:39;;;;;;;5.20;4.70;;;;;;;21.18;40.77;95521.41;6199976;28;104864;-51
2022/05/08 02:31:41;;;;;;;5.60;5.10;;;;;;;21.17;40.90;95520.63;6210883;28;103622;-51
2022/05/08 02:34:43;;;;;;;4.90;4.50;;;;;;;21.18;40.75;95521.41;6209802;28;103640;-51
2022/05/08 02:37:44;;;;;;;4.83;4.43;;;;;;;21.16;40.74;95519.00;6209765;28;103874;-51
2022/05/08 02:40:46;;;;;;;5.40;4.90;;;;;;;21.11;40.86;95511.09;6195144;28;105088;-52
2022/05/08 02:43:48;;;;;;;5.13;4.73;;;;;;;21.14;40.65;95520.38;6187684;28;104913;-51
2022/05/08 02:46:50;;;;;;;6.07;4.50;;;;;;;21.08;41.07;95513.56;6185822;28;103676;-51
2022/05/08 02:49:52;;;;;;;5.27;4.60;;;;;;;21.10;40.78;95516.72;6200197;28;105206;-51
2022/05/08 02:52:54;;;;;;;4.83;4.33;;;;;;;21.07;40.72;95510.09;6197203;28;104184;-51
2022/05/08 02:59:15;;;;;;;5.63;5.00;;;;;;;21.09;40.68;95509.81;6210166;28;103768;-51
2022/05/08 03:02:17;;;;;;;4.97;4.47;;;;;;;21.07;40.64;95511.97;6203752;28;104829;-51
2022/05/08 03:05:19;;;;;;;4.27;3.97;;;;;;;21.08;40.75;95516.22;6204787;28;104827;-52
2022/05/08 03:08:21;;;;;;;4.90;4.50;;;;;;;21.11;40.79;95520.97;6199232;28;103809;-51
2022/05/08 03:11:25;;;;;;;4.47;4.07;;;;;;;21.08;40.79;95526.88;6210028;28;104567;-52
2022/05/08 03:14:27;;;;;;;4.30;3.90;;;;;;;21.04;40.94;95512.53;6196475;28;104434;-51
2022/05/08 03:17:29;;;;;;;4.80;4.40;;;;;;;21.10;40.64;95524.69;6210325;28;104249;-51
2022/05/08 03:20:31;;;;;;;4.23;3.90;;;;;;;21.09;41.14;95531.09;6207324;28;103585;-51
2022/05/08 03:23:34;;;;;;;4.37;4.00;;;;;;;21.05;41.03;95516.81;6187311;28;103782;-51
2022/05/08 03:26:36;;;;;;;4.20;3.90;;;;;;;21.10;40.61;95530.03;6174680;28;104527;-50
2022/05/08 03:29:38;;;;;;;5.20;3.90;;;;;;;21.05;41.08;95536.22;6185478;28;103670;-52
2022/05/08 03:32:40;;;;;;;4.37;3.97;;;;;;;21.02;40.99;95533.31;6196572;28;103165;-50
2022/05/08 03:35:42;;;;;;;9.50;4.50;;;;;;;21.18;41.39;95537.38;6209114;28;105084;-54
2022/05/08 03:38:45;;;;;;;6.90;4.43;;;;;;;21.21;40.69;95534.94;6182110;28;105057;-56
2022/05/08 03:41:47;;;;;;;22.00;7.27;;;;;;;21.25;40.45;95526.38;6194534;28;103796;-55
2022/05/08 03:44:49;;;;;;;17.47;6.00;;;;;;;21.18;40.53;95537.38;6184965;28;103568;-55
2022/05/08 03:47:52;;;;;;;18.20;6.00;;;;;;;21.18;40.52;95537.38;6184901;28;103307;-56
2022/05/08 03:50:53;;;;;;;10.77;5.83;;;;;;;21.01;38.48;95537.84;6200754;28;104683;-55
2022/05/08 03:53:55;;;;;;;11.17;4.67;;;;;;;21.03;37.19;95532.22;6209603;28;103777;-54
2022/05/08 03:56:57;;;;;;;9.30;4.57;;;;;;;20.78;37.13;95522.69;6200880;28;103873;-53
2022/05/08 03:59:58;;;;;;;17.90;5.83;;;;;;;20.75;36.56;95534.69;6175145;28;104962;-54
2022/05/08 04:03:01;;;;;;;8.37;4.20;;;;;;;20.59;35.77;95527.97;6194286;28;103636;-51
2022/05/08 04:06:03;;;;;;;8.73;3.80;;;;;;;20.39;35.17;95528.22;6208025;28;104718;-50
2022/05/08 04:09:05;;;;;;;5.10;4.00;;;;;;;20.32;34.47;95537.28;6210023;28;104069;-49
2022/05/08 04:12:07;;;;;;;7.63;4.40;;;;;;;20.31;34.32;95538.38;6190800;28;104145;-54
2022/05/08 04:18:29;;;;;;;6.43;3.80;;;;;;;20.19;33.85;95543.25;6208734;28;104704;-51
2022/05/08 04:21:31;;;;;;;5.20;3.33;;;;;;;20.01;33.99;95551.94;6194883;28;104146;-51
2022/05/08 04:24:32;;;;;;;5.30;4.13;;;;;;;19.93;33.52;95544.56;6184469;28;103631;-50
2022/05/08 04:27:37;;;;;;;4.20;3.40;;;;;;;19.93;33.45;95547.22;6201436;28;103832;-51
2022/05/08 04:30:39;;;;;;;4.17;3.37;;;;;;;19.92;33.55;95558.91;6186999;28;104696;-51
2022/05/08 04:33:41;;;;;;;5.03;3.67;;;;;;;19.98;33.15;95549.81;6190727;28;104678;-54
2022/05/08 04:36:42;;;;;;;4.03;3.73;;;;;;;19.62;32.01;95552.75;6233049;28;103998;-54
2022/05/08 04:39:44;;;;;;;4.80;3.60;;;;;;;19.78;32.88;95552.66;6222918;28;103813;-54
2022/05/08 04:42:46;;;;;;;3.63;3.33;;;;;;;19.93;32.52;95552.53;6195784;28;104824;-52
2022/05/08 04:45:47;;;;;;;5.20;3.80;;;;;;;20.20;33.53;95546.72;6194871;28;104496;-53
2022/05/08 04:48:49;;;;;;;3.93;3.63;;;;;;;20.43;33.41;95545.16;6204478;28;107708;-54
2022/05/08 04:51:51;;;;;;;6.60;3.77;;;;;;;20.56;34.38;95549.81;6197271;28;105409;-55
2022/05/08 04:54:52;;;;;;;5.07;3.40;;;;;;;20.65;34.86;95552.63;6201614;28;103775;-54
2022/05/08 04:57:54;;;;;;;11.30;3.63;;;;;;;20.68;35.20;95560.06;6179480;28;105850;-54
2022/05/08 05:01:00;;;;;;;8.13;3.87;;;;;;;20.78;35.32;95555.41;6168306;28;104141;-54
2022/05/08 05:04:02;;;;;;;5.23;3.43;;;;;;;20.78;35.09;95547.41;6194234;28;103389;-55
2022/05/08 05:07:04;;;;;;;6.83;3.50;;;;;;;20.76;35.20;95552.25;6191634;28;103613;-55
2022/05/08 05:10:06;;;;;;;7.37;3.87;;;;;;;20.81;35.40;95560.16;6186985;28;104682;-57
2022/05/08 05:13:08;;;;;;;9.37;3.90;;;;;;;20.83;35.24;95560.66;6201120;28;103639;-55
2022/05/08 05:16:10;;;;;;;6.80;3.30;;;;;;;20.83;35.33;95562.53;6202003;28;105053;-55
2022/05/08 05:19:12;;;;;;;9.70;3.80;;;;;;;20.87;35.33;95569.66;6187219;28;104737;-54
2022/05/08 05:22:14;;;;;;;14.60;3.70;;;;;;;20.89;35.78;95561.41;6202588;28;103915;-56
2022/05/08 05:25:15;;;;;;;13.93;3.60;;;;;;;20.96;35.93;95561.84;6202371;28;103796;-56
2022/05/08 05:28:18;;;;;;;8.30;3.07;;;;;;;20.96;36.04;95561.03;6204952;28;104955;-55
2022/05/08 05:31:19;;;;;;;13.27;5.07;;;;;;;20.96;36.18;95571.69;6197407;28;103644;-55
2022/05/08 05:34:21;;;;;;;12.67;4.37;;;;;;;21.01;35.40;95566.31;6194562;28;103628;-56
2022/05/08 05:37:23;;;;;;;7.73;4.10;;;;;;;20.81;34.63;95564.69;6184264;28;103898;-55
2022/05/08 05:40:25;;;;;;;11.77;4.53;;;;;;;20.94;34.94;95558.66;6215042;28;105059;-56
2022/05/08 05:43:26;;;;;;;6.27;3.53;;;;;;;21.09;35.66;95563.03;6166382;28;103899;-55
2022/05/08 05:49:49;;;;;;;6.50;3.80;;;;;;;21.30;35.35;95556.34;6200963;28;104961;-55
2022/05/08 05:52:51;;;;;;;9.63;3.53;;;;;;;21.34;35.24;95562.72;6176895;28;104304;-55
2022/05/08 05:55:57;;;;;;;8.33;4.67;;;;;;;21.36;35.14;95563.22;6205598;28;103501;-56
2022/05/08 05:58:59;;;;;;;4.63;4.20;;;;;;;21.36;34.56;95563.22;6207946;28;103822;-56
2022/05/08 06:02:00;;;;;;;9.30;3.50;;;;;;;21.41;34.25;95557.81;6191347;28;103866;-56
2022/05/08 06:05:03;;;;;;;10.13;4.20;;;;;;;21.58;34.82;95556.50;6195638;28;104674;-55
2022/05/08 06:08:05;;;;;;;8.93;3.80;;;;;;;21.69;35.07;95558.72;6204632;28;105294;-56
2022/05/08 06:11:07;;;;;;;12.23;4.47;;;;;;;21.78;35.25;95548.97;6197746;28;103671;-55
2022/05/08 06:14:09;;;;;;;9.73;3.47;;;;;;;21.86;35.11;95550.22;6187031;28;104699;-55
2022/05/08 06:17:10;;;;;;;8.30;3.97;;;;;;;21.92;36.02;95546.41;6193268;28;104897;-56
2022/05/08 06:20:12;;;;;;;5.83;4.07;;;;;;;21.96;35.70;95541.25;6201140;28;103752;-57
2022/05/08 06:23:14;;;;;;;8.93;3.67;;;;;;;22.05;36.83;95545.66;6194436;28;103889;-58
2022/05/08 06:26:16;;;;;;;8.20;4.17;;;;;;;22.13;36.04;95543.38;6185741;28;105022;-56
2022/05/08 06:29:18;;;;;;;8.50;4.17;;;;;;;22.12;36.45;95545.25;6176373;28;103860;-56
2022/05/08 06:32:21;;;;;;;6.57;3.83;;;;;;;22.14;36.50;95536.97;6195523;28;103797;-57
2022/05/08 06:35:23;;;;;;;9.50;4.67;;;;;;;22.11;36.25;95547.13;6205362;28;104886;-57
2022/05/08 06:38:24;;;;;;;8.03;4.40;;;;;;;22.13;36.16;95544.16;6193476;28;105085;-57
2022/05/08 06:41:27;;;;;;;7.70;4.50;;;;;;;22.17;36.46;95541.69;6200724;28;103822;-56
2022/05/08 06:44:29;;;;;;;10.93;3.93;;;;;;;22.10;36.29;95539.44;6200627;28;103386;-56
2022/05/08 06:47:31;;;;;;;9.30;4.10;;;;;;;22.22;35.84;95536.28;6207051;28;103932;-56
2022/05/08 06:50:33;;;;;;;7.53;4.50;;;;;;;22.32;35.44;95536.09;6223210;27;103908;-54
2022/05/08 06:53:35;;;;;;;10.43;4.80;;;;;;;22.44;35.30;95531.06;6190999;28;103774;-54
2022/05/08 06:56:37;;;;;;;7.73;4.60;;;;;;;22.52;35.58;95538.41;6204525;28;104034;-54
2022/05/08 07:03:03;;;;;;;7.33;4.50;;;;;;;22.60;35.98;95532.41;6185348;28;106504;-55
2022/05/08 07:06:06;;;;;;;6.37;4.67;;;;;;;22.68;36.18;95529.06;6204819;28;103707;-57
2022/05/08 07:09:08;;;;;;;11.40;4.97;;;;;;;22.65;36.63;95528.84;6207332;28;104853;-55
2022/05/08 07:12:10;;;;;;;5.90;4.37;;;;;;;22.60;36.21;95527.06;6202748;28;103869;-55
2022/05/08 07:15:11;;;;;;;5.53;4.97;;;;;;;22.67;36.29;95529.31;6208963;28;104721;-55
2022/05/08 07:18:13;;;;;;;5.50;4.80;;;;;;;22.70;36.67;95526.88;6209792;28;103781;-55
2022/05/08 07:21:15;;;;;;;5.20;4.70;;;;;;;22.74;36.94;95532.41;6210440;28;104812;-55
2022/05/08 07:24:17;;;;;;;6.77;5.83;;;;;;;22.78;36.75;95529.91;6199175;28;104775;-57
2022/05/08 07:27:19;;;;;;;6.60;6.00;;;;;;;22.81;36.86;95529.31;6210790;28;105330;-56
2022/05/08 07:30:21;;;;;;;7.00;6.30;;;;;;;22.82;37.12;95530.91;6210794;28;104795;-57
2022/05/08 07:33:22;;;;;;;10.67;6.27;;;;;;;22.78;36.78;95522.69;6209621;28;103636;-54
2022/05/08 07:36:24;;;;;;;13.53;7.83;;;;;;;22.76;37.12;95526.75;6191509;28;103873;-55
2022/05/08 07:39:27;;;;;;;8.13;7.27;;;;;;;22.76;36.80;95514.22;6184191;28;103331;-55
2022/05/08 07:42:29;;;;;;;9.20;7.10;;;;;;;22.75;36.89;95517.19;6184310;28;103687;-53
2022/05/08 07:45:30;;;;;;;14.43;7.43;;;;;;;22.72;36.41;95515.91;6184149;28;104980;-54
2022/05/08 07:48:33;;;;;;;9.03;6.30;;;;;;;22.72;36.18;95507.91;6176185;28;104877;-52
2022/05/08 07:51:35;;;;;;;12.43;8.27;;;;;;;22.77;36.23;95517.66;6184958;28;104160;-53
2022/05/08 07:54:37;;;;;;;8.07;6.07;;;;;;;22.87;36.31;95506.78;6195318;28;105277;-56
2022/05/08 07:57:38;;;;;;;9.43;6.47;;;;;;;22.88;36.65;95501.16;6201900;28;103863;-56
2022/05/08 08:00:40;;;;;;;13.33;6.90;;;;;;;22.89;36.64;95508.06;6208166;28;104845;-55
2022/05/08 08:03:42;;;;;;;7.93;6.23;;;;;;;22.90;37.41;95500.84;6209366;28;104719;-58
2022/05/08 08:06:44;;;;;;;8.47;6.37;;;;;;;22.94;36.53;95499.16;6207082;28;104768;-55
2022/05/08 08:09:45;;;;;;;11.93;7.33;;;;;;;23.00;37.18;95500.63;6173691;28;103780;-55
2022/05/08 08:12:47;;;;;;;12.70;6.47;;;;;;;22.99;37.21;95502.50;6184631;28;103613;-55
2022/05/08 08:15:49;;;;;;;9.57;7.20;;;;;;;22.98;37.02;95497.47;6201905;28;104389;-55
2022/05/08 08:18:54;;;;;;;7.90;7.10;;;;;;;22.98;37.36;95492.13;6194107;28;103667;-55
2022/05/08 08:21:56;;;;;;;15.00;7.43;;;;;;;22.99;38.08;95491.03;6183966;28;103693;-56
2022/05/08 08:24:59;;;;;;;12.60;7.60;;;;;;;22.99;38.71;95494.50;6211766;28;103497;-55
2022/05/08 08:28:03;;;;;;;7.93;7.10;;;;;;;22.99;38.19;95491.03;6189786;28;103849;-55
2022/05/08 08:31:06;;;;;;;9.37;7.30;;;;;;;22.98;38.66;95495.59;6199994;28;105071;-57
2022/05/08 08:34:08;;;;;;;7.83;6.70;;;;;;;22.99;38.33;95486.50;6195529;28;104814;-56
2022/05/08 08:37:10;;;;;;;7.17;6.53;;;;;;;23.01;38.59;95486.97;6208381;28;104232;-55
2022/05/08 08:40:12;;;;;;;10.13;6.93;;;;;;;23.00;39.42;95488.06;6206259;28;103874;-55
2022/05/08 08:43:16;;;;;;;8.83;6.30;;;;;;;22.99;38.76;95486.50;6193651;28;104938;-55
2022/05/08 08:49:47;;;;;;;7.47;6.67;;;;;;;23.00;38.57;95474.72;6198550;28;104715;-56
2022/05/08 08:52:50;;;;;;;8.87;6.37;;;;;;;23.00;38.09;95473.94;6203683;28;103611;-56
2022/05/08 08:55:52;;;;;;;7.43;6.77;;;;;;;23.01;38.42;95470.97;6184882;28;104831;-56
2022/05/08 08:58:54;;;;;;;8.00;6.60;;;;;;;23.07;39.29;95470.88;6197863;28;103769;-56
2022/05/08 09:01:56;;;;;;;10.67;8.10;;;;;;;23.07;41.15;95460.97;6202838;28;103730;-58
2022/05/08 09:04:58;;;;;;;12.17;7.83;;;;;;;23.10;42.40;95459.56;6206847;28;104832;-56
2022/05/08 09:08:00;;;;;;;9.67;8.10;;;;;;;23.11;43.17;95459.28;6187085;28;104858;-56
2022/05/08 09:11:02;;;;;;;11.10;8.60;;;;;;;23.11;42.63;95466.50;6204458;28;103850;-56
2022/05/08 09:14:05;;;;;;;8.40;6.20;;;;;;;23.10;41.85;95455.03;6202957;28;103683;-55
2022/05/08 09:17:06;;;;;;;8.40;7.60;;;;;;;23.11;42.78;95453.16;6194797;28;104605;-56
2022/05/08 09:20:33;;;;;;;7.50;6.70;;;;;;;23.17;42.36;95447.38;6202243;28;104115;-55
2022/05/08 09:23:35;;;;;;;11.00;6.23;;;;;;;23.14;42.50;95456.00;6205094;28;104878;-56
2022/05/08 09:26:36;;;;;;;9.30;8.10;;;;;;;23.13;43.10;95451.75;6205917;28;104747;-55
2022/05/08 09:29:39;;;;;;;11.13;7.53;;;;;;;23.14;42.28;95449.88;6193145;28;103917;-56
2022/05/08 09:33:02;;;;;;;9.33;8.40;;;;;;;23.14;42.98;95450.66;6202998;28;103897;-55
2022/05/08 09:36:23;;;;;;;10.20;8.40;;;;;;;23.15;41.63;95452.22;6201660;28;104909;-56
2022/05/08 09:39:25;;;;;;;8.63;7.83;;;;;;;23.16;40.58;95445.00;6195772;28;103373;-54
2022/05/08 09:42:37;;;;;;;9.47;8.07;;;;;;;23.13;40.57;95429.59;6192934;28;104931;-55
2022/05/08 09:45:57;;;;;;;7.20;6.50;;;;;;;23.15;40.65;95432.75;6197592;28;104893;-55
2022/05/08 09:48:59;;;;;;;7.30;6.70;;;;;;;23.10;40.54;95430.22;6196500;28;104808;-55
2022/05/08 09:52:02;;;;;;;9.23;7.57;;;;;;;23.09;40.74;95421.41;6189006;28;103754;-60
2022/05/08 09:55:04;;;;;;;7.73;7.00;;;;;;;22.99;40.34;95429.66;6199617;28;103875;-57
2022/05/08 09:58:06;;;;;;;7.80;7.00;;;;;;;22.96;39.41;95417.69;6205018;28;104754;-56
2022/05/08 10:01:08;;;;;;;10.23;6.67;;;;;;;23.01;38.72;95417.56;6197567;28;104163;-56
2022/05/08 10:04:10;;;;;;;7.93;7.10;;;;;;;22.95;38.58;95416.13;6192329;28;104700;-56
2022/05/08 10:07:13;;;;;;;7.70;6.50;;;;;;;22.91;38.17;95420.50;6201867;28;104670;-56
2022/05/08 10:13:58;;;;;;;6.63;5.90;;;;;;;22.85;36.80;95410.22;6197845;28;104853;-57
2022/05/08 10:16:59;;;;;;;6.40;5.90;;;;;;;22.83;37.67;95407.84;6192899;28;103774;-57
2022/05/08 10:20:01;;;;;;;6.90;6.17;;;;;;;22.81;37.73;95394.03;6203016;28;104256;-57
2022/05/08 10:23:04;;;;;;;5.60;5.10;;;;;;;22.77;37.35;95397.59;6204639;28;103016;-57
2022/05/08 10:26:20;;;;;;;5.57;5.07;;;;;;;22.76;36.19;95390.69;6191062;28;104453;-57
2022/05/08 10:29:22;;;;;;;5.70;5.20;;;;;;;22.75;36.79;95383.78;6194628;28;104769;-57
2022/05/08 10:32:33;;;;;;;5.63;5.20;;;;;;;22.73;37.34;95380.63;6201823;28;104999;-57
2022/05/08 10:35:35;;;;;;;5.60;5.20;;;;;;;22.70;37.38;95372.13;6203436;28;103848;-56
2022/05/08 10:38:36;;;;;;;6.07;5.47;;;;;;;22.69;37.66;95373.22;6197808;28;104639;-57
2022/05/08 10:41:44;;;;;;;6.20;5.60;;;;;;;22.68;37.86;95366.31;6205828;28;104885;-57
2022/05/08 10:44:46;;;;;;;5.33;4.93;;;;;;;22.62;36.84;95370.16;6201903;28;104362;-57
2022/05/08 10:47:48;;;;;;;5.90;5.40;;;;;;;22.63;37.68;95357.63;6191316;28;104609;-57
2022/05/08 10:50:51;;;;;;;5.47;4.97;;;;;;;22.62;38.26;95361.38;6198536;28;103637;-57
2022/05/08 10:54:07;;;;;;;6.10;5.60;;;;;;;22.61;38.04;95365.94;6205496;28;103717;-57
2022/05/08 10:57:10;;;;;;;6.23;5.67;;;;;;;22.58;37.59;95355.06;6201503;28;103686;-57
2022/05/08 11:00:21;;;;;;;5.77;5.27;;;;;;;22.62;37.54;95353.38;6188388;28;103983;-57
2022/05/08 11:03:23;;;;;;;6.17;5.27;;;;;;;22.64;37.66;95337.84;6198906;28;104097;-54
2022/05/08 11:06:24;;;;;;;5.30;4.90;;;;;;;22.63;37.79;95346.94;6197676;28;103427;-56
2022/05/08 11:09:26;;;;;;;5.93;5.43;;;;;;;22.61;37.42;95341.91;6202508;28;105134;-58
2022/05/08 11:12:28;;;;;;;6.93;4.87;;;;;;;22.59;37.37;95341.44;6192955;28;104878;-57
2022/05/08 11:15:34;;;;;;;4.80;4.40;;;;;;;22.59;37.34;95341.44;6205237;28;103843;-57
2022/05/08 11:18:37;;;;;;;5.40;4.80;;;;;;;22.60;36.92;95334.22;6210077;28;104263;-56
2022/05/08 11:21:39;;;;;;;6.23;4.87;;;;;;;22.59;37.20;95341.44;6205328;28;103730;-56
2022/05/08 11:24:42;;;;;;;6.67;5.03;;;;;;;22.58;37.48;95333.75;6188648;28;103882;-57
2022/05/08 11:27:53;;;;;;;5.53;5.00;;;;;;;22.57;37.18;95335.63;6185218;28;104764;-56
2022/05/08 11:30:57;;;;;;;5.73;5.23;;;;;;;22.55;38.10;95327.09;6208639;28;104392;-57
2022/05/08 11:37:20;;;;;;;6.03;5.37;;;;;;;22.53;38.40;95323.94;6195045;28;104845;-57
2022/05/08 11:40:22;;;;;;;6.27;5.00;;;;;;;22.52;38.18;95318.91;6185860;28;104734;-56
2022/05/08 11:43:40;;;;;;;5.20;4.70;;;;;;;22.52;38.53;95319.72;6184425;28;103885;-57
2022/05/08 11:46:45;;;;;;;6.20;5.40;;;;;;;22.51;38.91;95323.44;6187590;28;104345;-57
2022/05/08 11:49:48;;;;;;;5.27;4.87;;;;;;;22.51;38.72;95312.78;6209345;28;103757;-57
2022/05/08 11:52:59;;;;;;;6.13;5.57;;;;;;;22.53;39.15;95318.63;6208498;28;104818;-56
2022/05/08 11:56:00;;;;;;;5.00;4.60;;;;;;;22.51;38.84;95315.44;6203631;28;103781;-56
2022/05/08 11:59:04;;;;;;;5.53;5.03;;;;;;;22.50;38.75;95308.53;6206447;28;105075;-57
2022/05/08 12:02:06;;;;;;;5.33;4.70;;;;;;;22.48;39.28;95310.72;6210076;28;103612;-57
2022/05/08 12:05:21;;;;;;;6.73;5.47;;;;;;;22.50;39.28;95310.41;6208891;28;103664;-56
2022/05/08 12:08:22;;;;;;;5.13;4.63;;;;;;;22.51;39.55;95304.78;6175371;28;103761;-56
2022/05/08 12:11:35;;;;;;;5.67;5.20;;;;;;;22.51;39.71;95291.44;6191544;28;103711;-56
2022/05/08 12:14:39;;;;;;;5.80;5.30;;;;;;;22.50;39.65;95300.53;6208072;28;103620;-57
2022/05/08 12:17:43;;;;;;;5.20;4.70;;;;;;;22.49;39.90;95293.63;6190150;28;105046;-57
2022/05/08 12:20:45;;;;;;;6.13;5.40;;;;;;;22.45;40.33;95276.66;6173607;28;104064;-56
2022/05/08 12:23:47;;;;;;;5.10;4.70;;;;;;;22.51;40.06;95287.97;6208051;28;103969;-57
2022/05/08 12:26:50;;;;;;;4.90;4.50;;;;;;;22.50;40.67;95291.75;6208057;28;105061;-57
2022/05/08 12:29:53;;;;;;;5.60;5.10;;;;;;;22.52;40.32;95286.91;6204107;28;104937;-55
2022/05/08 12:32:55;;;;;;;5.17;4.77;;;;;;;22.51;40.75;95285.31;6203985;28;105481;-57
2022/05/08 12:35:56;;;;;;;5.00;4.60;;;;;;;22.49;40.59;95282.16;6204733;28;104386;-57
2022/05/08 12:38:58;;;;;;;5.00;4.60;;;;;;;22.51;40.47;95286.09;6184379;28;103673;-57
2022/05/08 12:42:00;;;;;;;5.90;5.50;;;;;;;22.50;40.47;95284.53;6195512;28;103945;-57
2022/05/08 12:45:02;;;;;;;5.57;5.07;;;;;;;22.51;41.05;95287.97;6208065;28;104853;-57
2022/05/08 12:48:05;;;;;;;8.67;4.70;;;;;;;22.51;40.73;95280.75;6207629;28;104039;-56
2022/05/08 12:51:07;;;;;;;5.00;4.60;;;;;;;22.50;40.73;95278.41;6208384;28;106519;-57
2022/05/08 12:54:09;;;;;;;4.90;4.50;;;;;;;22.49;40.93;95280.28;6198025;28;104379;-57
2022/05/08 12:57:11;;;;;;;5.13;4.73;;;;;;;22.49;41.03;95282.16;6204472;28;103990;-56
2022/05/08 13:00:13;;;;;;;5.37;4.40;;;;;;;22.50;40.58;95279.19;6208602;28;104614;-57
2022/05/08 13:03:16;;;;;;;5.57;4.60;;;;;;;22.49;40.84;95282.94;6208640;28;104934;-56
2022/05/08 13:06:18;;;;;;;4.93;4.50;;;;;;;22.50;40.88;95276.53;6197772;28;104159;-56
2022/05/08 13:09:20;;;;;;;5.20;4.70;;;;;;;22.54;40.87;95274.06;6201031;28;103684;-56
2022/05/08 13:12:22;;;;;;;4.90;4.50;;;;;;;22.53;41.47;95269.81;6198314;28;104805;-57
2022/05/08 13:15:23;;;;;;;5.70;5.20;;;;;;;22.53;41.37;95270.59;6191294;28;103828;-57
2022/05/08 13:18:25;;;;;;;5.03;4.63;;;;;;;22.54;41.18;95271.41;6179107;28;105295;-56
2022/05/08 13:21:28;;;;;;;5.83;5.10;;;;;;;22.55;41.55;95278.31;6204138;28;103798;-57
2022/05/08 13:24:30;;;;;;;5.80;5.30;;;;;;;22.54;41.44;95276.72;6204940;28;103608;-55
2022/05/08 13:27:32;;;;;;;5.17;4.67;;;;;;;22.54;41.45;95266.84;6184652;28;103737;-57
2022/05/08 13:30:34;;;;;;;5.50;5.00;;;;;;;22.55;41.63;95271.09;6206043;28;105232;-57
2022/05/08 13:33:36;;;;;;;5.20;4.70;;;;;;;22.56;41.87;95271.88;6202768;28;103782;-56
2022/05/08 13:36:39;;;;;;;4.93;4.53;;;;;;;22.56;41.51;95262.00;6202322;28;103654;-56
2022/05/08 13:39:41;;;;;;;4.87;4.50;;;;;;;22.56;41.51;95264.66;6200129;28;104813;-56
2022/05/08 13:42:43;;;;;;;4.67;4.27;;;;;;;22.55;42.14;95271.09;6206916;28;104009;-56
2022/05/08 13:45:45;;;;;;;5.60;3.90;;;;;;;22.58;41.96;95265.19;6197821;28;104927;-56
2022/05/08 13:48:47;;;;;;;4.93;4.53;;;;;;;22.54;41.25;95266.84;6202954;28;104795;-57
2022/05/08 13:51:48;;;;;;;4.80;4.40;;;;;;;22.54;40.00;95268.72;6196832;28;104581;-56
2022/05/08 13:54:50;;;;;;;4.67;4.27;;;;;;;22.54;39.74;95258.84;6204999;28;104475;-56
2022/05/08 13:57:54;;;;;;;4.37;4.07;;;;;;;22.53;39.54;95269.81;6193229;28;104057;-57
2022/05/08 14:00:57;;;;;;;3.43;3.17;;;;;;;22.50;38.47;95257.06;6208363;28;105293;-59
2022/05/08 14:03:59;;;;;;;3.83;3.53;;;;;;;22.51;37.56;95262.09;6209978;28;103624;-54
2022/05/08 14:07:00;;;;;;;6.00;3.50;;;;;;;22.50;37.55;95257.84;6213061;28;103754;-55
2022/05/08 14:10:04;;;;;;;5.23;3.20;;;;;;;22.54;37.22;95266.06;6220766;28;103709;-58
2022/05/08 14:13:07;;;;;;;4.37;2.93;;;;;;;22.49;36.12;95258.94;6201903;28;103881;-58
2022/05/08 14:16:09;;;;;;;3.20;3.00;;;;;;;22.47;34.67;95261.13;6207861;28;103164;-59
2022/05/08 14:19:11;;;;;;;2.87;2.67;;;;;;;22.46;34.04;95264.88;6209952;28;104214;-58
2022/05/08 14:22:12;;;;;;;5.00;2.67;;;;;;;22.48;33.16;95265.38;6208802;28;103175;-57
2022/05/08 14:25:15;;;;;;;2.80;2.47;;;;;;;22.49;33.19;95263.50;6202130;28;103724;-57
2022/05/08 14:28:16;;;;;;;3.10;2.30;;;;;;;22.48;32.74;95270.72;6214197;28;103843;-57
2022/05/08 14:38:00;;;;;;;5.83;2.73;;;;;;;22.58;32.60;95262.50;6210292;28;103992;-61
2022/05/08 14:41:02;;;;;;;3.83;2.27;;;;;;;22.62;31.41;95268.81;6210743;28;104303;-57